CBJ8 weather

Fraser Lake Seaplane Base
British Columbia, Canada

Public forecast

Using degrees Celsius for public forecast. Weather courtesy of forecast.io.

METAR (pilot weather report)

Closest report is Prince George Airport, 78.5 nm (145.5 km) E. Retrieved 2019/08/25 21:40 UTC (13 minutes ago):

CYXS 252140Z AUTO 32015G21KT 250V340 9SM FEW065 BKN087 17/06 A3009 RMK PRESRR SLP199 DENSITY ALT 2800FT

TAF (pilot weather forecast)

Closest forecast is Prince George Airport, 78.5 nm (145.5 km) E. Retrieved 2019/08/25 19:39 UTC (2 hours ago):

TAF CYXS 251838Z 2519/2607 28012G22KT P6SM BKN070 FM260300 28008KT P6SM SCT070 RMK FCST BASED ON AUTO OBS. NXT FCST BY 260100Z